sensor_id;sensor_type;location;lat;lon;timestamp;temperature;humidity
10572;DHT22;5334;48.928;12.704;2023-02-28T00:00:25;-1.00;99.90
10572;DHT22;5334;48.928;12.704;2023-02-28T00:02:50;-1.00;99.90
10572;DHT22;5334;48.928;12.704;2023-02-28T00:05:19;-1.00;99.90
10572;DHT22;5334;48.928;12.704;2023-02-28T00:07:45;-1.00;99.90
10572;DHT22;5334;48.928;12.704;2023-02-28T00:10:14;-1.00;99.90
10572;DHT22;5334;48.928;12.704;2023-02-28T00:12:40;-1.00;99.90
10572;DHT22;5334;48.928;12.704;2023-02-28T00:15:08;-1.00;99.90
10572;DHT22;5334;48.928;12.704;2023-02-28T00:17:34;-1.00;99.90
10572;DHT22;5334;48.928;12.704;2023-02-28T00:19:59;-1.00;99.90
10572;DHT22;5334;48.928;12.704;2023-02-28T00:22:29;-1.00;99.90
10572;DHT22;5334;48.928;12.704;2023-02-28T00:24:55;-1.10;99.90
10572;DHT22;5334;48.928;12.704;2023-02-28T00:27:21;-1.10;99.90
10572;DHT22;5334;48.928;12.704;2023-02-28T00:29:47;-1.10;99.90
10572;DHT22;5334;48.928;12.704;2023-02-28T00:32:13;-1.10;99.90
10572;DHT22;5334;48.928;12.704;2023-02-28T00:34:39;-1.10;99.90
10572;DHT22;5334;48.928;12.704;2023-02-28T00:37:09;-1.10;99.90
10572;DHT22;5334;48.928;12.704;2023-02-28T00:39:38;-1.10;99.90
10572;DHT22;5334;48.928;12.704;2023-02-28T00:42:05;-1.10;99.90
10572;DHT22;5334;48.928;12.704;2023-02-28T00:44:31;-1.10;99.90
10572;DHT22;5334;48.928;12.704;2023-02-28T00:46:58;-1.10;99.90
10572;DHT22;5334;48.928;12.704;2023-02-28T00:49:24;-1.10;99.90
10572;DHT22;5334;48.928;12.704;2023-02-28T00:51:50;-1.10;99.90
10572;DHT22;5334;48.928;12.704;2023-02-28T00:54:16;-1.10;99.90
10572;DHT22;5334;48.928;12.704;2023-02-28T00:56:42;-1.10;99.90
10572;DHT22;5334;48.928;12.704;2023-02-28T00:59:08;-1.10;99.90
10572;DHT22;5334;48.928;12.704;2023-02-28T01:01:34;-1.20;99.90
10572;DHT22;5334;48.928;12.704;2023-02-28T01:03:59;-1.20;99.90
10572;DHT22;5334;48.928;12.704;2023-02-28T01:06:25;-1.20;99.90
10572;DHT22;5334;48.928;12.704;2023-02-28T01:08:51;-1.20;99.90
10572;DHT22;5334;48.928;12.704;2023-02-28T01:11:17;-1.20;99.90
10572;DHT22;5334;48.928;12.704;2023-02-28T01:13:45;-1.30;99.90
10572;DHT22;5334;48.928;12.704;2023-02-28T01:16:12;-1.30;99.90
10572;DHT22;5334;48.928;12.704;2023-02-28T01:18:38;-1.30;99.90
10572;DHT22;5334;48.928;12.704;2023-02-28T01:21:09;-1.30;99.90
10572;DHT22;5334;48.928;12.704;2023-02-28T01:23:35;-1.30;99.90
10572;DHT22;5334;48.928;12.704;2023-02-28T01:26:10;-1.30;99.90
10572;DHT22;5334;48.928;12.704;2023-02-28T01:28:36;-1.30;99.90
10572;DHT22;5334;48.928;12.704;2023-02-28T01:31:02;-1.30;99.90
10572;DHT22;5334;48.928;12.704;2023-02-28T01:33:28;-1.30;99.90
10572;DHT22;5334;48.928;12.704;2023-02-28T01:36:21;-1.30;99.90
10572;DHT22;5334;48.928;12.704;2023-02-28T01:38:47;-1.30;99.90
10572;DHT22;5334;48.928;12.704;2023-02-28T01:41:33;-1.30;99.90
10572;DHT22;5334;48.928;12.704;2023-02-28T01:46:25;-1.30;99.90
10572;DHT22;5334;48.928;12.704;2023-02-28T01:49:04;-1.30;99.90
10572;DHT22;5334;48.928;12.704;2023-02-28T01:51:48;-1.20;99.90
10572;DHT22;5334;48.928;12.704;2023-02-28T01:54:22;-1.30;99.90
10572;DHT22;5334;48.928;12.704;2023-02-28T01:59:31;-1.20;99.90
10572;DHT22;5334;48.928;12.704;2023-02-28T02:02:00;-1.30;99.90
10572;DHT22;5334;48.928;12.704;2023-02-28T02:04:32;-1.30;99.90
10572;DHT22;5334;48.928;12.704;2023-02-28T02:06:59;-1.30;99.90
10572;DHT22;5334;48.928;12.704;2023-02-28T02:09:25;-1.30;99.90
10572;DHT22;5334;48.928;12.704;2023-02-28T02:11:51;-1.30;99.90
10572;DHT22;5334;48.928;12.704;2023-02-28T02:14:31;-1.30;99.90
10572;DHT22;5334;48.928;12.704;2023-02-28T02:17:29;-1.30;99.90
10572;DHT22;5334;48.928;12.704;2023-02-28T02:36:53;-1.40;99.90
10572;DHT22;5334;48.928;12.704;2023-02-28T02:42:13;-1.30;99.90
10572;DHT22;5334;48.928;12.704;2023-02-28T02:44:44;-1.30;99.90
10572;DHT22;5334;48.928;12.704;2023-02-28T02:47:24;-1.40;99.90
10572;DHT22;5334;48.928;12.704;2023-02-28T02:49:57;-1.30;99.90
10572;DHT22;5334;48.928;12.704;2023-02-28T02:52:30;-1.30;99.90
10572;DHT22;5334;48.928;12.704;2023-02-28T02:54:58;-1.30;99.90
10572;DHT22;5334;48.928;12.704;2023-02-28T02:57:52;-1.40;99.90
10572;DHT22;5334;48.928;12.704;2023-02-28T03:00:23;-1.40;99.90
10572;DHT22;5334;48.928;12.704;2023-02-28T03:02:52;-1.40;99.90
10572;DHT22;5334;48.928;12.704;2023-02-28T03:05:23;-1.30;99.90
10572;DHT22;5334;48.928;12.704;2023-02-28T03:07:50;-1.40;99.90
10572;DHT22;5334;48.928;12.704;2023-02-28T03:16:02;-1.40;99.90
10572;DHT22;5334;48.928;12.704;2023-02-28T03:21:26;-1.40;99.90
10572;DHT22;5334;48.928;12.704;2023-02-28T03:26:45;-1.50;99.90
10572;DHT22;5334;48.928;12.704;2023-02-28T03:29:16;-1.50;99.90
10572;DHT22;5334;48.928;12.704;2023-02-28T03:31:52;-1.50;99.90
10572;DHT22;5334;48.928;12.704;2023-02-28T03:34:29;-1.50;99.90
10572;DHT22;5334;48.928;12.704;2023-02-28T03:37:02;-1.60;99.90
10572;DHT22;5334;48.928;12.704;2023-02-28T03:39:36;-1.60;99.90
10572;DHT22;5334;48.928;12.704;2023-02-28T03:42:15;-1.60;99.90
10572;DHT22;5334;48.928;12.704;2023-02-28T03:44:50;-1.60;99.90
10572;DHT22;5334;48.928;12.704;2023-02-28T03:47:33;-1.60;99.90
10572;DHT22;5334;48.928;12.704;2023-02-28T03:50:13;-1.60;99.90
10572;DHT22;5334;48.928;12.704;2023-02-28T03:52:54;-1.60;99.90
10572;DHT22;5334;48.928;12.704;2023-02-28T03:55:30;-1.60;99.90
10572;DHT22;5334;48.928;12.704;2023-02-28T03:58:32;-1.60;99.90
10572;DHT22;5334;48.928;12.704;2023-02-28T04:01:07;-1.60;99.90
10572;DHT22;5334;48.928;12.704;2023-02-28T04:03:37;-1.70;99.90
10572;DHT22;5334;48.928;12.704;2023-02-28T04:06:04;-1.70;99.90
10572;DHT22;5334;48.928;12.704;2023-02-28T04:08:31;-1.60;99.90
10572;DHT22;5334;48.928;12.704;2023-02-28T04:11:18;-1.60;99.90
10572;DHT22;5334;48.928;12.704;2023-02-28T04:13:45;-1.60;99.90
10572;DHT22;5334;48.928;12.704;2023-02-28T04:16:10;-1.50;99.90
10572;DHT22;5334;48.928;12.704;2023-02-28T04:18:41;-1.60;99.90
10572;DHT22;5334;48.928;12.704;2023-02-28T04:21:09;-1.50;99.90
10572;DHT22;5334;48.928;12.704;2023-02-28T04:23:35;-1.40;99.90
10572;DHT22;5334;48.928;12.704;2023-02-28T04:26:00;-1.50;99.90
10572;DHT22;5334;48.928;12.704;2023-02-28T04:28:26;-1.50;99.90
10572;DHT22;5334;48.928;12.704;2023-02-28T04:31:02;-1.50;99.90
10572;DHT22;5334;48.928;12.704;2023-02-28T04:33:29;-1.50;99.90
10572;DHT22;5334;48.928;12.704;2023-02-28T04:36:13;-1.50;99.90
10572;DHT22;5334;48.928;12.704;2023-02-28T04:38:40;-1.50;99.90
10572;DHT22;5334;48.928;12.704;2023-02-28T04:41:06;-1.50;99.90
10572;DHT22;5334;48.928;12.704;2023-02-28T04:43:32;-1.50;99.90
10572;DHT22;5334;48.928;12.704;2023-02-28T04:46:01;-1.60;99.90
10572;DHT22;5334;48.928;12.704;2023-02-28T04:48:29;-1.50;99.90
10572;DHT22;5334;48.928;12.704;2023-02-28T04:50:55;-1.50;99.90
10572;DHT22;5334;48.928;12.704;2023-02-28T04:53:21;-1.50;99.90
10572;DHT22;5334;48.928;12.704;2023-02-28T04:55:46;-1.50;99.90
10572;DHT22;5334;48.928;12.704;2023-02-28T04:58:15;-1.50;99.90
10572;DHT22;5334;48.928;12.704;2023-02-28T05:00:41;-1.50;99.90
10572;DHT22;5334;48.928;12.704;2023-02-28T05:03:07;-1.40;99.90
10572;DHT22;5334;48.928;12.704;2023-02-28T05:05:32;-1.50;99.90
10572;DHT22;5334;48.928;12.704;2023-02-28T05:07:58;-1.50;99.90
10572;DHT22;5334;48.928;12.704;2023-02-28T05:10:24;-1.50;99.90
10572;DHT22;5334;48.928;12.704;2023-02-28T05:12:49;-1.40;99.90
10572;DHT22;5334;48.928;12.704;2023-02-28T05:15:16;-1.40;99.90
10572;DHT22;5334;48.928;12.704;2023-02-28T05:17:42;-1.40;99.90
10572;DHT22;5334;48.928;12.704;2023-02-28T05:20:09;-1.40;99.90
10572;DHT22;5334;48.928;12.704;2023-02-28T05:22:40;-1.40;99.90
10572;DHT22;5334;48.928;12.704;2023-02-28T05:25:06;-1.50;99.90
10572;DHT22;5334;48.928;12.704;2023-02-28T05:27:32;-1.50;99.90
10572;DHT22;5334;48.928;12.704;2023-02-28T05:29:58;-1.50;99.90
10572;DHT22;5334;48.928;12.704;2023-02-28T05:32:24;-1.50;99.90
10572;DHT22;5334;48.928;12.704;2023-02-28T05:34:50;-1.50;99.90
10572;DHT22;5334;48.928;12.704;2023-02-28T05:37:16;-1.40;99.90
10572;DHT22;5334;48.928;12.704;2023-02-28T05:39:42;-1.50;99.90
10572;DHT22;5334;48.928;12.704;2023-02-28T05:42:08;-1.50;99.90
10572;DHT22;5334;48.928;12.704;2023-02-28T05:44:34;-1.40;99.90
10572;DHT22;5334;48.928;12.704;2023-02-28T05:47:00;-1.50;99.90
10572;DHT22;5334;48.928;12.704;2023-02-28T05:49:26;-1.40;99.90
10572;DHT22;5334;48.928;12.704;2023-02-28T05:51:51;-1.50;99.90
10572;DHT22;5334;48.928;12.704;2023-02-28T05:54:17;-1.40;99.90
10572;DHT22;5334;48.928;12.704;2023-02-28T05:56:43;-1.40;99.90
10572;DHT22;5334;48.928;12.704;2023-02-28T05:59:14;-1.40;99.90
10572;DHT22;5334;48.928;12.704;2023-02-28T06:01:45;-1.40;99.90
10572;DHT22;5334;48.928;12.704;2023-02-28T06:04:15;-1.40;99.90
10572;DHT22;5334;48.928;12.704;2023-02-28T06:06:46;-1.40;99.90
10572;DHT22;5334;48.928;12.704;2023-02-28T06:09:12;-1.40;99.90
10572;DHT22;5334;48.928;12.704;2023-02-28T06:11:39;-1.30;99.90
10572;DHT22;5334;48.928;12.704;2023-02-28T06:14:05;-1.30;99.90
10572;DHT22;5334;48.928;12.704;2023-02-28T06:16:33;-1.20;99.90
10572;DHT22;5334;48.928;12.704;2023-02-28T06:19:00;-1.10;99.90
10572;DHT22;5334;48.928;12.704;2023-02-28T06:21:27;-1.00;99.90
10572;DHT22;5334;48.928;12.704;2023-02-28T06:23:53;-0.80;99.90
10572;DHT22;5334;48.928;12.704;2023-02-28T06:26:20;-0.60;99.90
10572;DHT22;5334;48.928;12.704;2023-02-28T06:28:46;-0.50;99.90
10572;DHT22;5334;48.928;12.704;2023-02-28T06:31:15;-0.30;99.90
10572;DHT22;5334;48.928;12.704;2023-02-28T06:33:41;-0.10;99.90
10572;DHT22;5334;48.928;12.704;2023-02-28T06:36:09;0.10;99.90
10572;DHT22;5334;48.928;12.704;2023-02-28T06:38:35;0.20;99.90
10572;DHT22;5334;48.928;12.704;2023-02-28T06:41:02;0.40;99.90
10572;DHT22;5334;48.928;12.704;2023-02-28T06:43:34;0.50;99.90
10572;DHT22;5334;48.928;12.704;2023-02-28T06:46:02;0.70;99.90
10572;DHT22;5334;48.928;12.704;2023-02-28T06:48:28;0.80;99.90
10572;DHT22;5334;48.928;12.704;2023-02-28T06:53:32;1.10;99.90
10572;DHT22;5334;48.928;12.704;2023-02-28T06:55:58;1.20;99.90
10572;DHT22;5334;48.928;12.704;2023-02-28T06:58:24;1.40;99.90
10572;DHT22;5334;48.928;12.704;2023-02-28T07:00:52;1.60;99.90
10572;DHT22;5334;48.928;12.704;2023-02-28T07:03:18;1.70;99.90
10572;DHT22;5334;48.928;12.704;2023-02-28T07:05:44;1.90;99.90
10572;DHT22;5334;48.928;12.704;2023-02-28T07:08:11;2.00;99.90
10572;DHT22;5334;48.928;12.704;2023-02-28T07:10:40;2.20;99.90
10572;DHT22;5334;48.928;12.704;2023-02-28T07:13:07;2.40;99.90
10572;DHT22;5334;48.928;12.704;2023-02-28T07:15:34;2.50;99.90
10572;DHT22;5334;48.928;12.704;2023-02-28T07:17:59;2.60;99.90
10572;DHT22;5334;48.928;12.704;2023-02-28T07:20:25;2.80;99.90
10572;DHT22;5334;48.928;12.704;2023-02-28T07:22:51;3.00;99.90
10572;DHT22;5334;48.928;12.704;2023-02-28T07:25:24;3.10;99.90
10572;DHT22;5334;48.928;12.704;2023-02-28T07:27:50;3.10;99.90
10572;DHT22;5334;48.928;12.704;2023-02-28T07:30:16;3.20;99.90
10572;DHT22;5334;48.928;12.704;2023-02-28T07:32:42;3.30;99.90
10572;DHT22;5334;48.928;12.704;2023-02-28T07:35:08;3.40;99.90
10572;DHT22;5334;48.928;12.704;2023-02-28T07:37:33;3.50;99.90
10572;DHT22;5334;48.928;12.704;2023-02-28T07:40:06;3.50;99.50
10572;DHT22;5334;48.928;12.704;2023-02-28T07:42:34;3.40;99.40
10572;DHT22;5334;48.928;12.704;2023-02-28T07:45:01;3.60;99.70
10572;DHT22;5334;48.928;12.704;2023-02-28T07:47:26;3.80;99.50
10572;DHT22;5334;48.928;12.704;2023-02-28T07:49:53;3.90;99.20
10572;DHT22;5334;48.928;12.704;2023-02-28T07:52:19;4.00;98.50
10572;DHT22;5334;48.928;12.704;2023-02-28T07:54:45;4.20;98.60
10572;DHT22;5334;48.928;12.704;2023-02-28T07:57:10;4.30;98.20
10572;DHT22;5334;48.928;12.704;2023-02-28T07:59:36;4.40;98.40
10572;DHT22;5334;48.928;12.704;2023-02-28T08:02:02;4.40;97.60
10572;DHT22;5334;48.928;12.704;2023-02-28T08:04:27;4.60;97.70
10572;DHT22;5334;48.928;12.704;2023-02-28T08:06:56;4.60;97.00
10572;DHT22;5334;48.928;12.704;2023-02-28T08:09:22;4.80;97.40
10572;DHT22;5334;48.928;12.704;2023-02-28T08:11:48;5.00;97.70
10572;DHT22;5334;48.928;12.704;2023-02-28T08:14:13;5.30;97.40
10572;DHT22;5334;48.928;12.704;2023-02-28T08:16:39;5.40;96.70
10572;DHT22;5334;48.928;12.704;2023-02-28T08:19:05;5.40;96.60
10572;DHT22;5334;48.928;12.704;2023-02-28T08:21:30;5.50;96.30
10572;DHT22;5334;48.928;12.704;2023-02-28T08:23:56;5.70;96.50
10572;DHT22;5334;48.928;12.704;2023-02-28T08:26:22;5.60;95.70
10572;DHT22;5334;48.928;12.704;2023-02-28T08:28:48;5.70;95.60
10572;DHT22;5334;48.928;12.704;2023-02-28T08:31:15;5.80;95.90
10572;DHT22;5334;48.928;12.704;2023-02-28T08:33:42;5.90;95.40
10572;DHT22;5334;48.928;12.704;2023-02-28T08:36:10;5.80;95.20
10572;DHT22;5334;48.928;12.704;2023-02-28T08:38:36;5.90;95.20
10572;DHT22;5334;48.928;12.704;2023-02-28T08:41:05;6.10;95.40
10572;DHT22;5334;48.928;12.704;2023-02-28T08:43:33;6.10;94.70
10572;DHT22;5334;48.928;12.704;2023-02-28T08:45:59;6.10;94.80
10572;DHT22;5334;48.928;12.704;2023-02-28T08:48:26;6.10;94.50
10572;DHT22;5334;48.928;12.704;2023-02-28T08:51:02;6.20;94.70
10572;DHT22;5334;48.928;12.704;2023-02-28T08:53:28;6.10;94.50
10572;DHT22;5334;48.928;12.704;2023-02-28T08:55:58;6.30;94.60
10572;DHT22;5334;48.928;12.704;2023-02-28T08:58:24;6.30;93.50
10572;DHT22;5334;48.928;12.704;2023-02-28T09:00:50;6.30;94.70
10572;DHT22;5334;48.928;12.704;2023-02-28T09:03:16;6.30;93.90
10572;DHT22;5334;48.928;12.704;2023-02-28T09:05:52;6.40;93.80
10572;DHT22;5334;48.928;12.704;2023-02-28T09:08:18;6.50;94.00
10572;DHT22;5334;48.928;12.704;2023-02-28T09:10:43;6.80;94.40
10572;DHT22;5334;48.928;12.704;2023-02-28T09:13:09;6.80;93.60
10572;DHT22;5334;48.928;12.704;2023-02-28T09:15:37;6.80;94.20
10572;DHT22;5334;48.928;12.704;2023-02-28T09:18:03;7.00;93.40
10572;DHT22;5334;48.928;12.704;2023-02-28T09:20:28;7.20;93.10
10572;DHT22;5334;48.928;12.704;2023-02-28T09:22:55;7.30;92.70
10572;DHT22;5334;48.928;12.704;2023-02-28T09:25:20;7.40;93.60
10572;DHT22;5334;48.928;12.704;2023-02-28T09:30:13;7.70;92.20
10572;DHT22;5334;48.928;12.704;2023-02-28T09:32:38;7.80;92.70
10572;DHT22;5334;48.928;12.704;2023-02-28T09:35:05;7.90;92.50
10572;DHT22;5334;48.928;12.704;2023-02-28T09:37:31;8.00;92.80
10572;DHT22;5334;48.928;12.704;2023-02-28T09:39:57;7.90;92.30
10572;DHT22;5334;48.928;12.704;2023-02-28T09:42:33;7.90;92.70
10572;DHT22;5334;48.928;12.704;2023-02-28T09:45:02;8.10;93.00
10572;DHT22;5334;48.928;12.704;2023-02-28T09:47:38;8.20;93.10
10572;DHT22;5334;48.928;12.704;2023-02-28T09:52:53;8.10;92.80
10572;DHT22;5334;48.928;12.704;2023-02-28T09:55:30;8.10;92.80
10572;DHT22;5334;48.928;12.704;2023-02-28T09:57:57;8.30;93.20
10572;DHT22;5334;48.928;12.704;2023-02-28T10:00:36;8.40;92.40
10572;DHT22;5334;48.928;12.704;2023-02-28T10:06:21;8.20;91.40
10572;DHT22;5334;48.928;12.704;2023-02-28T10:09:02;7.70;89.50
10572;DHT22;5334;48.928;12.704;2023-02-28T10:11:29;7.50;90.90
10572;DHT22;5334;48.928;12.704;2023-02-28T10:14:22;7.70;92.00
10572;DHT22;5334;48.928;12.704;2023-02-28T10:16:56;8.00;91.30
10572;DHT22;5334;48.928;12.704;2023-02-28T10:22:08;7.80;90.70
10572;DHT22;5334;48.928;12.704;2023-02-28T10:24:42;7.90;90.30
10572;DHT22;5334;48.928;12.704;2023-02-28T10:29:45;8.70;90.00
10572;DHT22;5334;48.928;12.704;2023-02-28T10:32:15;8.50;88.20
10572;DHT22;5334;48.928;12.704;2023-02-28T10:34:42;8.00;86.10
10572;DHT22;5334;48.928;12.704;2023-02-28T10:37:07;7.80;88.40
10572;DHT22;5334;48.928;12.704;2023-02-28T10:39:35;8.20;90.20
10572;DHT22;5334;48.928;12.704;2023-02-28T10:42:05;8.90;90.30
10572;DHT22;5334;48.928;12.704;2023-02-28T10:44:43;9.00;87.10
10572;DHT22;5334;48.928;12.704;2023-02-28T10:47:15;8.40;86.50
10572;DHT22;5334;48.928;12.704;2023-02-28T10:49:47;8.50;87.80
10572;DHT22;5334;48.928;12.704;2023-02-28T10:52:13;8.40;85.80
10572;DHT22;5334;48.928;12.704;2023-02-28T10:54:39;8.40;88.50
10572;DHT22;5334;48.928;12.704;2023-02-28T10:59:36;8.20;86.90
10572;DHT22;5334;48.928;12.704;2023-02-28T11:02:02;8.10;87.70
10572;DHT22;5334;48.928;12.704;2023-02-28T11:07:06;9.20;88.90
10572;DHT22;5334;48.928;12.704;2023-02-28T11:09:40;9.30;87.20
10572;DHT22;5334;48.928;12.704;2023-02-28T11:12:26;9.70;86.60
10572;DHT22;5334;48.928;12.704;2023-02-28T11:15:20;9.80;85.60
10572;DHT22;5334;48.928;12.704;2023-02-28T11:18:06;9.70;85.10
10572;DHT22;5334;48.928;12.704;2023-02-28T11:20:49;9.90;86.60
10572;DHT22;5334;48.928;12.704;2023-02-28T11:23:16;9.70;85.60
10572;DHT22;5334;48.928;12.704;2023-02-28T11:25:48;9.90;85.10
10572;DHT22;5334;48.928;12.704;2023-02-28T11:28:41;9.80;85.10
10572;DHT22;5334;48.928;12.704;2023-02-28T11:33:52;9.80;86.50
10572;DHT22;5334;48.928;12.704;2023-02-28T11:38:55;9.50;86.80
10572;DHT22;5334;48.928;12.704;2023-02-28T11:44:32;10.30;85.80
10572;DHT22;5334;48.928;12.704;2023-02-28T11:53:01;10.80;80.80
10572;DHT22;5334;48.928;12.704;2023-02-28T12:11:46;10.70;78.70
10572;DHT22;5334;48.928;12.704;2023-02-28T12:25:03;10.90;83.50
10572;DHT22;5334;48.928;12.704;2023-02-28T12:27:39;11.20;83.30
10572;DHT22;5334;48.928;12.704;2023-02-28T12:30:28;12.00;82.50
10572;DHT22;5334;48.928;12.704;2023-02-28T12:33:05;12.50;81.40
10572;DHT22;5334;48.928;12.704;2023-02-28T12:35:38;12.30;80.00
10572;DHT22;5334;48.928;12.704;2023-02-28T12:38:22;12.00;78.70
10572;DHT22;5334;48.928;12.704;2023-02-28T12:41:16;12.40;79.30
10572;DHT22;5334;48.928;12.704;2023-02-28T12:43:49;11.70;80.60
10572;DHT22;5334;48.928;12.704;2023-02-28T12:46:35;10.80;80.10
10572;DHT22;5334;48.928;12.704;2023-02-28T12:49:09;10.50;84.00
10572;DHT22;5334;48.928;12.704;2023-02-28T12:51:36;10.50;84.80
10572;DHT22;5334;48.928;12.704;2023-02-28T12:54:04;10.10;80.60
10572;DHT22;5334;48.928;12.704;2023-02-28T13:10:04;9.70;83.70
10572;DHT22;5334;48.928;12.704;2023-02-28T13:12:32;9.50;84.40
10572;DHT22;5334;48.928;12.704;2023-02-28T13:15:25;9.30;84.00
10572;DHT22;5334;48.928;12.704;2023-02-28T13:17:58;9.50;85.50
10572;DHT22;5334;48.928;12.704;2023-02-28T13:20:28;10.90;85.20
10572;DHT22;5334;48.928;12.704;2023-02-28T13:22:55;11.80;83.00
10572;DHT22;5334;48.928;12.704;2023-02-28T13:27:52;13.00;80.10
10572;DHT22;5334;48.928;12.704;2023-02-28T13:33:30;14.00;77.40
10572;DHT22;5334;48.928;12.704;2023-02-28T13:38:36;14.50;75.60
10572;DHT22;5334;48.928;12.704;2023-02-28T13:46:25;14.60;72.10
10572;DHT22;5334;48.928;12.704;2023-02-28T13:48:51;14.50;71.80
10572;DHT22;5334;48.928;12.704;2023-02-28T13:51:45;13.10;70.30
10572;DHT22;5334;48.928;12.704;2023-02-28T13:54:24;13.20;74.10
10572;DHT22;5334;48.928;12.704;2023-02-28T14:05:09;13.60;75.50
10572;DHT22;5334;48.928;12.704;2023-02-28T14:07:46;13.60;73.10
10572;DHT22;5334;48.928;12.704;2023-02-28T14:10:32;13.60;72.40
10572;DHT22;5334;48.928;12.704;2023-02-28T14:13:00;13.60;72.00
10572;DHT22;5334;48.928;12.704;2023-02-28T14:15:39;13.60;73.00
10572;DHT22;5334;48.928;12.704;2023-02-28T14:18:16;13.70;72.80
10572;DHT22;5334;48.928;12.704;2023-02-28T14:20:43;13.50;71.20
10572;DHT22;5334;48.928;12.704;2023-02-28T14:36:45;12.00;73.20
10572;DHT22;5334;48.928;12.704;2023-02-28T14:41:38;10.80;73.80
10572;DHT22;5334;48.928;12.704;2023-02-28T14:44:31;10.80;76.00
10572;DHT22;5334;48.928;12.704;2023-02-28T14:47:01;10.90;76.20
10572;DHT22;5334;48.928;12.704;2023-02-28T14:49:35;11.60;75.50
10572;DHT22;5334;48.928;12.704;2023-02-28T14:52:20;12.00;73.90
10572;DHT22;5334;48.928;12.704;2023-02-28T14:54:56;11.10;74.00
10572;DHT22;5334;48.928;12.704;2023-02-28T15:00:04;10.70;74.50
10572;DHT22;5334;48.928;12.704;2023-02-28T15:02:36;10.70;77.10
10572;DHT22;5334;48.928;12.704;2023-02-28T15:05:25;11.00;78.30
10572;DHT22;5334;48.928;12.704;2023-02-28T15:08:34;10.70;76.00
10572;DHT22;5334;48.928;12.704;2023-02-28T15:11:20;10.40;77.80
10572;DHT22;5334;48.928;12.704;2023-02-28T15:16:25;10.00;77.60
10572;DHT22;5334;48.928;12.704;2023-02-28T15:19:02;10.30;78.70
10572;DHT22;5334;48.928;12.704;2023-02-28T15:21:34;10.50;77.20
10572;DHT22;5334;48.928;12.704;2023-02-28T15:24:06;10.20;77.40
10572;DHT22;5334;48.928;12.704;2023-02-28T15:26:36;10.30;78.00
10572;DHT22;5334;48.928;12.704;2023-02-28T15:29:20;9.70;78.50
10572;DHT22;5334;48.928;12.704;2023-02-28T15:32:06;9.90;80.70
10572;DHT22;5334;48.928;12.704;2023-02-28T15:34:37;9.70;80.30
10572;DHT22;5334;48.928;12.704;2023-02-28T15:40:23;9.80;81.40
10572;DHT22;5334;48.928;12.704;2023-02-28T15:43:15;9.80;82.10
10572;DHT22;5334;48.928;12.704;2023-02-28T15:45:47;9.50;81.40
10572;DHT22;5334;48.928;12.704;2023-02-28T15:48:23;8.70;82.10
10572;DHT22;5334;48.928;12.704;2023-02-28T15:53:31;7.60;85.90
10572;DHT22;5334;48.928;12.704;2023-02-28T15:56:01;7.20;87.30
10572;DHT22;5334;48.928;12.704;2023-02-28T15:58:27;6.80;88.50
10572;DHT22;5334;48.928;12.704;2023-02-28T16:01:04;6.40;89.10
10572;DHT22;5334;48.928;12.704;2023-02-28T16:03:43;6.10;91.40
10572;DHT22;5334;48.928;12.704;2023-02-28T16:08:47;5.60;99.90
10572;DHT22;5334;48.928;12.704;2023-02-28T16:11:16;5.40;91.90
10572;DHT22;5334;48.928;12.704;2023-02-28T16:13:42;5.20;92.30
10572;DHT22;5334;48.928;12.704;2023-02-28T16:16:08;5.00;92.80
10572;DHT22;5334;48.928;12.704;2023-02-28T16:18:40;4.90;93.90
10572;DHT22;5334;48.928;12.704;2023-02-28T16:21:05;4.80;94.50
10572;DHT22;5334;48.928;12.704;2023-02-28T16:23:31;4.80;94.50
10572;DHT22;5334;48.928;12.704;2023-02-28T16:25:56;4.60;94.30
10572;DHT22;5334;48.928;12.704;2023-02-28T16:28:31;4.50;95.60
10572;DHT22;5334;48.928;12.704;2023-02-28T16:31:00;4.50;95.20
10572;DHT22;5334;48.928;12.704;2023-02-28T16:33:28;4.30;95.50
10572;DHT22;5334;48.928;12.704;2023-02-28T16:35:54;4.20;96.20
10572;DHT22;5334;48.928;12.704;2023-02-28T16:38:20;4.20;96.10
10572;DHT22;5334;48.928;12.704;2023-02-28T16:43:18;3.90;96.80
10572;DHT22;5334;48.928;12.704;2023-02-28T16:45:45;3.90;97.60
10572;DHT22;5334;48.928;12.704;2023-02-28T16:48:13;3.90;98.10
10572;DHT22;5334;48.928;12.704;2023-02-28T16:50:39;3.90;98.20
10572;DHT22;5334;48.928;12.704;2023-02-28T16:53:05;3.90;98.30
10572;DHT22;5334;48.928;12.704;2023-02-28T16:55:31;3.90;98.60
10572;DHT22;5334;48.928;12.704;2023-02-28T16:57:59;3.90;99.30
10572;DHT22;5334;48.928;12.704;2023-02-28T17:02:51;3.70;99.50
10572;DHT22;5334;48.928;12.704;2023-02-28T17:05:17;3.60;99.70
10572;DHT22;5334;48.928;12.704;2023-02-28T17:07:44;3.50;99.90
10572;DHT22;5334;48.928;12.704;2023-02-28T17:10:22;3.40;99.90
10572;DHT22;5334;48.928;12.704;2023-02-28T17:12:48;3.40;99.90
10572;DHT22;5334;48.928;12.704;2023-02-28T17:15:15;3.30;99.90
10572;DHT22;5334;48.928;12.704;2023-02-28T17:17:42;3.30;99.90
10572;DHT22;5334;48.928;12.704;2023-02-28T17:20:16;3.20;99.90
10572;DHT22;5334;48.928;12.704;2023-02-28T17:22:42;3.20;99.90
10572;DHT22;5334;48.928;12.704;2023-02-28T17:25:09;3.20;99.90
10572;DHT22;5334;48.928;12.704;2023-02-28T17:27:35;3.30;99.90
10572;DHT22;5334;48.928;12.704;2023-02-28T17:30:03;3.30;99.90
10572;DHT22;5334;48.928;12.704;2023-02-28T17:32:29;3.30;99.90
10572;DHT22;5334;48.928;12.704;2023-02-28T17:34:55;3.30;99.90
10572;DHT22;5334;48.928;12.704;2023-02-28T17:37:21;3.30;99.90
10572;DHT22;5334;48.928;12.704;2023-02-28T17:39:46;3.30;99.90
10572;DHT22;5334;48.928;12.704;2023-02-28T17:42:12;3.30;99.90
10572;DHT22;5334;48.928;12.704;2023-02-28T17:44:37;3.30;99.90
10572;DHT22;5334;48.928;12.704;2023-02-28T17:47:03;3.30;99.90
10572;DHT22;5334;48.928;12.704;2023-02-28T17:49:29;3.30;99.90
10572;DHT22;5334;48.928;12.704;2023-02-28T17:51:55;3.30;99.90
10572;DHT22;5334;48.928;12.704;2023-02-28T17:54:20;3.20;99.90
10572;DHT22;5334;48.928;12.704;2023-02-28T17:56:46;3.20;99.90
10572;DHT22;5334;48.928;12.704;2023-02-28T17:59:12;3.10;99.90
10572;DHT22;5334;48.928;12.704;2023-02-28T18:01:38;3.00;99.90
10572;DHT22;5334;48.928;12.704;2023-02-28T18:04:04;3.00;99.90
10572;DHT22;5334;48.928;12.704;2023-02-28T18:06:35;2.90;99.90
10572;DHT22;5334;48.928;12.704;2023-02-28T18:09:02;2.90;99.90
10572;DHT22;5334;48.928;12.704;2023-02-28T18:11:27;2.80;99.90
10572;DHT22;5334;48.928;12.704;2023-02-28T18:14:09;2.80;99.90
10572;DHT22;5334;48.928;12.704;2023-02-28T18:16:34;2.70;99.90
10572;DHT22;5334;48.928;12.704;2023-02-28T18:19:00;2.70;99.90
10572;DHT22;5334;48.928;12.704;2023-02-28T18:21:28;2.60;99.90
10572;DHT22;5334;48.928;12.704;2023-02-28T18:23:54;2.60;99.90
10572;DHT22;5334;48.928;12.704;2023-02-28T18:26:20;2.60;99.90
10572;DHT22;5334;48.928;12.704;2023-02-28T18:28:47;2.50;99.90
10572;DHT22;5334;48.928;12.704;2023-02-28T18:31:15;2.50;99.90
10572;DHT22;5334;48.928;12.704;2023-02-28T18:33:42;2.50;99.90
10572;DHT22;5334;48.928;12.704;2023-02-28T18:36:08;2.50;99.90
10572;DHT22;5334;48.928;12.704;2023-02-28T18:38:34;2.50;99.90
10572;DHT22;5334;48.928;12.704;2023-02-28T18:41:02;2.50;99.90
10572;DHT22;5334;48.928;12.704;2023-02-28T18:43:30;2.40;99.90